LHR weather

London Heathrow Airport
London, England, United Kingdom

Public forecast

Using degrees Celsius for public forecast. Weather courtesy of forecast.io.

METAR (pilot weather report)

Retrieved 2017/03/28 13:20 UTC (33 minutes ago):

EGLL 281320Z AUTO 24012KT 210V270 9999 SCT026 16/09 Q1020

TAF (pilot weather forecast)

Retrieved 2017/03/28 12:15 UTC (2 hours ago):

TAF EGLL 281105Z 2812/2918 24010KT 9999 SCT030 PROB30 TEMPO 2812/2817 23015G25KT 7000 SHRA BKN014 BKN030CB BECMG 2822/2901 BKN010 TEMPO 2900/2909 6000 -RADZ BKN007 BECMG 2910/2913 BKN018